createdAt,value
2019-04-21T00:00:45.623Z,58.70
2019-04-21T00:03:26.083Z,59.00
2019-04-21T00:06:12.060Z,60.00
2019-04-21T00:08:50.585Z,60.20
2019-04-21T00:11:22.610Z,63.50
2019-04-21T00:13:46.700Z,65.00
2019-04-21T00:16:14.151Z,66.70
2019-04-21T00:19:13.885Z,68.10
2019-04-21T00:21:47.812Z,70.70
2019-04-21T00:24:29.005Z,72.20
2019-04-21T00:27:05.227Z,74.00
2019-04-21T00:29:42.531Z,75.50
2019-04-21T00:32:16.284Z,77.00
2019-04-21T00:34:34.695Z,78.70
2019-04-21T00:37:18.025Z,79.60
2019-04-21T00:40:05.951Z,80.60
2019-04-21T00:42:37.646Z,81.20
2019-04-21T00:45:08.081Z,81.30
2019-04-21T00:47:46.341Z,81.10
2019-04-21T00:50:25.121Z,82.40
2019-04-21T00:53:05.506Z,83.60
2019-04-21T00:56:04.513Z,83.30
2019-04-21T00:58:26.878Z,84.40
2019-04-21T01:00:58.562Z,84.90
2019-04-21T01:03:32.304Z,85.00
2019-04-21T01:06:03.384Z,85.90
2019-04-21T01:08:44.090Z,87.20
2019-04-21T01:11:18.862Z,87.10
2019-04-21T01:13:52.717Z,87.60
2019-04-21T01:16:28.649Z,87.80
2019-04-21T01:19:01.971Z,88.70
2019-04-21T01:21:14.236Z,88.60
2019-04-21T01:23:48.642Z,88.60
2019-04-21T01:26:37.259Z,89.60
2019-04-21T01:29:14.469Z,89.30
2019-04-21T01:31:48.032Z,89.90
2019-04-21T01:34:28.849Z,90.00
2019-04-21T01:37:01.479Z,90.30
2019-04-21T01:39:41.385Z,90.30
2019-04-21T01:42:12.642Z,90.50
2019-04-21T01:44:46.155Z,90.60
2019-04-21T01:47:15.819Z,90.90
2019-04-21T01:49:44.173Z,91.80
2019-04-21T01:52:38.446Z,91.80
2019-04-21T01:55:22.569Z,91.60
2019-04-21T01:57:59.381Z,91.90
2019-04-21T02:01:03.573Z,92.30
2019-04-21T02:06:18.524Z,92.30
2019-04-21T02:08:49.096Z,92.60
2019-04-21T02:11:47.045Z,92.60
2019-04-21T02:14:05.421Z,92.60
2019-04-21T02:16:37.673Z,92.60
2019-04-21T02:19:04.466Z,92.70
2019-04-21T02:21:39.237Z,92.80
2019-04-21T02:24:31.656Z,92.80
2019-04-21T02:26:53.872Z,93.20
2019-04-21T02:29:37.015Z,93.40
2019-04-21T02:32:25.511Z,93.70
2019-04-21T02:34:52.872Z,93.90
2019-04-21T02:42:37.775Z,93.90
2019-04-21T02:45:09.489Z,93.90
2019-04-21T02:47:50.689Z,93.90
2019-04-21T02:50:24.291Z,94.60
2019-04-21T02:52:52.909Z,94.90
2019-04-21T02:55:21.979Z,95.00
2019-04-21T02:58:09.820Z,95.40
2019-04-21T03:01:14.447Z,95.70
2019-04-21T03:06:18.728Z,95.90
2019-04-21T03:11:20.459Z,95.60
2019-04-21T03:14:05.440Z,95.80
2019-04-21T03:16:31.512Z,95.90
2019-04-21T03:19:25.155Z,95.90
2019-04-21T03:21:52.566Z,95.80
2019-04-21T03:24:17.330Z,95.90
2019-04-21T03:27:09.683Z,95.80
2019-04-21T03:32:54.759Z,96.00
2019-04-21T03:39:50.737Z,95.80
2019-04-21T03:42:42.493Z,95.90
2019-04-21T03:52:58.895Z,95.80
2019-04-21T03:55:50.394Z,96.10
2019-04-21T04:06:44.301Z,97.00
2019-04-21T04:09:26.119Z,97.40
2019-04-21T04:11:50.871Z,97.50
2019-04-21T04:14:35.091Z,97.60
2019-04-21T04:22:16.539Z,97.50
2019-04-21T04:29:59.688Z,96.50
2019-04-21T04:32:28.589Z,98.00
2019-04-21T04:35:14.508Z,97.60
2019-04-21T04:37:47.058Z,97.50
2019-04-21T04:40:23.319Z,97.30
2019-04-21T04:43:19.883Z,97.40
2019-04-21T04:46:06.694Z,97.60
2019-04-21T04:48:28.057Z,97.90
2019-04-21T04:53:40.406Z,96.90
2019-04-21T04:56:13.877Z,97.50
2019-04-21T04:59:10.743Z,97.60
2019-04-21T05:03:56.623Z,96.60
2019-04-21T05:09:43.149Z,96.60
2019-04-21T05:11:55.815Z,96.70
2019-04-21T05:14:30.361Z,96.90
2019-04-21T05:17:17.783Z,97.10
2019-04-21T05:19:56.468Z,97.30
2019-04-21T05:24:43.973Z,97.40
2019-04-21T05:27:52.453Z,97.30
2019-04-21T05:30:40.456Z,97.10
2019-04-21T05:33:37.824Z,97.30
2019-04-21T05:36:38.176Z,97.50
2019-04-21T05:39:18.464Z,97.50
2019-04-21T05:41:49.087Z,97.20
2019-04-21T05:44:41.324Z,94.00
2019-04-21T05:47:20.862Z,94.30
2019-04-21T05:49:50.010Z,92.90
2019-04-21T05:52:27.150Z,92.20
2019-04-21T05:55:10.984Z,92.10
2019-04-21T05:57:43.153Z,91.10
2019-04-21T06:00:21.383Z,90.40
2019-04-21T06:02:53.425Z,89.40
2019-04-21T06:08:02.390Z,91.50
2019-04-21T06:10:43.674Z,90.00
2019-04-21T06:15:50.079Z,88.00
2019-04-21T06:18:27.211Z,81.90
2019-04-21T06:21:01.399Z,87.00
2019-04-21T06:23:33.094Z,82.30
2019-04-21T06:26:19.858Z,80.10
2019-04-21T06:28:46.655Z,78.70
2019-04-21T06:31:42.604Z,77.30
2019-04-21T06:34:06.765Z,75.30
2019-04-21T06:39:10.267Z,72.00
2019-04-21T06:41:38.037Z,70.00
2019-04-21T06:44:18.083Z,68.20
2019-04-21T06:46:48.933Z,66.90
2019-04-21T06:49:28.098Z,66.10
2019-04-21T06:52:07.313Z,64.90
2019-04-21T06:54:44.400Z,63.60
2019-04-21T06:57:18.224Z,63.30
2019-04-21T06:59:43.411Z,62.00
2019-04-21T07:02:37.800Z,61.50
2019-04-21T07:05:03.560Z,61.00
2019-04-21T07:07:35.179Z,60.20
2019-04-21T07:10:10.356Z,59.70
2019-04-21T07:12:42.910Z,59.00
2019-04-21T07:15:19.281Z,58.90
2019-04-21T07:17:54.004Z,57.70
2019-04-21T07:20:21.964Z,57.50
2019-04-21T07:23:01.762Z,57.00
2019-04-21T07:25:42.347Z,57.00
2019-04-21T07:28:12.873Z,56.70
2019-04-21T07:30:48.595Z,56.30
2019-04-21T07:33:41.537Z,55.50
2019-04-21T07:35:55.727Z,55.20
2019-04-21T07:38:28.600Z,55.40
2019-04-21T07:40:58.779Z,55.10
2019-04-21T07:43:32.984Z,54.90
2019-04-21T07:46:06.507Z,53.90
2019-04-21T07:48:50.097Z,53.00
2019-04-21T07:51:47.686Z,53.90
2019-04-21T07:54:25.109Z,51.70
2019-04-21T07:56:39.866Z,50.70
2019-04-21T07:59:41.221Z,51.40
2019-04-21T08:02:01.193Z,49.60
2019-04-21T08:07:15.181Z,48.80
2019-04-21T08:09:47.257Z,48.90
2019-04-21T08:12:16.243Z,48.10
2019-04-21T08:14:57.535Z,48.20
2019-04-21T08:17:30.469Z,47.60
2019-04-21T08:20:10.605Z,47.10
2019-04-21T08:22:46.580Z,46.90
2019-04-21T08:25:18.244Z,47.10
2019-04-21T08:30:32.138Z,44.80
2019-04-21T08:38:16.519Z,43.50
2019-04-21T08:41:01.991Z,44.20
2019-04-21T08:43:30.671Z,44.30
2019-04-21T08:46:13.049Z,42.90
2019-04-21T08:48:28.632Z,43.20
2019-04-21T08:51:26.106Z,43.20
2019-04-21T08:53:49.027Z,43.00
2019-04-21T08:56:21.695Z,41.50
2019-04-21T08:59:31.743Z,41.90
2019-04-21T09:05:14.941Z,40.50
2019-04-21T09:07:55.948Z,39.20
2019-04-21T09:10:22.300Z,39.90
2019-04-21T09:12:51.789Z,40.00
2019-04-21T09:15:31.390Z,39.10
2019-04-21T09:18:05.309Z,38.80
2019-04-21T09:20:47.362Z,37.90
2019-04-21T09:23:18.120Z,37.70
2019-04-21T09:25:55.390Z,35.00
2019-04-21T09:28:19.852Z,35.20
2019-04-21T09:30:48.880Z,34.20
2019-04-21T09:33:16.632Z,34.80
2019-04-21T09:35:56.367Z,33.20
2019-04-21T09:38:32.861Z,33.00
2019-04-21T09:40:59.728Z,31.20
2019-04-21T09:43:40.253Z,31.30
2019-04-21T09:46:08.404Z,30.20
2019-04-21T09:48:49.857Z,31.80
2019-04-21T09:51:17.855Z,30.30
2019-04-21T09:53:58.711Z,29.60
2019-04-21T09:56:34.348Z,29.30
2019-04-21T09:59:09.164Z,28.70
2019-04-21T10:01:50.088Z,28.90
2019-04-21T10:04:12.010Z,28.80
2019-04-21T10:06:45.311Z,28.40
2019-04-21T10:09:21.287Z,28.90
2019-04-21T10:11:54.763Z,28.10
2019-04-21T10:14:28.681Z,28.10
2019-04-21T10:17:23.951Z,28.20
2019-04-21T10:19:57.050Z,29.50
2019-04-21T10:22:30.982Z,28.20
2019-04-21T10:25:06.675Z,26.20
2019-04-21T10:27:40.903Z,27.00
2019-04-21T10:30:14.576Z,26.90
2019-04-21T10:32:48.384Z,27.40
2019-04-21T10:35:24.334Z,27.60
2019-04-21T10:38:10.401Z,26.60
2019-04-21T10:40:33.564Z,27.20
2019-04-21T10:43:09.069Z,26.60
2019-04-21T10:45:41.472Z,25.50
2019-04-21T10:48:14.696Z,25.30
2019-04-21T10:50:47.622Z,24.10
2019-04-21T10:53:24.816Z,24.60
2019-04-21T10:56:11.486Z,24.40
2019-04-21T10:58:42.285Z,24.30
2019-04-21T11:01:23.048Z,24.70
2019-04-21T11:04:27.263Z,24.40
2019-04-21T11:07:04.311Z,24.90
2019-04-21T11:09:31.857Z,24.30
2019-04-21T11:12:06.259Z,24.60
2019-04-21T11:14:39.277Z,24.40
2019-04-21T11:17:12.343Z,24.30
2019-04-21T11:19:46.442Z,22.60
2019-04-21T11:22:20.831Z,22.80
2019-04-21T11:24:53.882Z,23.40
2019-04-21T11:27:26.878Z,24.10
2019-04-21T11:29:59.842Z,24.10
2019-04-21T11:32:32.874Z,23.90
2019-04-21T11:35:05.621Z,23.00
2019-04-21T11:37:38.476Z,24.10
2019-04-21T11:43:01.993Z,23.30
2019-04-21T11:45:36.637Z,22.80
2019-04-21T11:48:18.452Z,22.30
2019-04-21T11:50:51.421Z,22.80
2019-04-21T11:53:25.234Z,22.30
2019-04-21T11:55:58.766Z,22.60
2019-04-21T11:58:31.991Z,23.90
2019-04-21T12:01:05.674Z,23.30
2019-04-21T12:03:39.949Z,23.00
2019-04-21T12:06:13.436Z,24.30
2019-04-21T12:08:49.915Z,23.60
2019-04-21T12:11:29.392Z,24.10
2019-04-21T12:14:03.682Z,23.80
2019-04-21T12:16:37.067Z,23.00
2019-04-21T12:19:10.106Z,22.40
2019-04-21T12:21:54.677Z,22.80
2019-04-21T12:24:19.157Z,22.10
2019-04-21T12:26:52.316Z,22.00
2019-04-21T12:29:25.365Z,21.90
2019-04-21T12:32:22.116Z,20.60
2019-04-21T12:34:55.778Z,20.70
2019-04-21T12:37:29.151Z,22.30
2019-04-21T12:40:03.303Z,23.00
2019-04-21T12:42:38.907Z,22.60
2019-04-21T12:45:12.996Z,20.80
2019-04-21T12:47:48.399Z,21.60
2019-04-21T12:50:21.475Z,22.30
2019-04-21T12:52:55.763Z,21.70
2019-04-21T12:55:31.524Z,22.80
2019-04-21T12:58:03.716Z,22.10
2019-04-21T13:00:36.847Z,21.70
2019-04-21T13:03:10.069Z,21.80
2019-04-21T13:05:43.421Z,21.40
2019-04-21T13:08:17.567Z,21.50
2019-04-21T13:10:51.988Z,21.60
2019-04-21T13:13:26.173Z,21.60
2019-04-21T13:15:59.342Z,22.30
2019-04-21T13:18:33.239Z,21.90
2019-04-21T13:21:07.263Z,21.70
2019-04-21T13:23:41.135Z,21.70
2019-04-21T13:26:16.134Z,21.40
2019-04-21T13:28:50.014Z,20.90
2019-04-21T13:31:24.472Z,20.30
2019-04-21T13:33:57.892Z,20.70
2019-04-21T13:36:31.770Z,20.80
2019-04-21T13:39:50.401Z,21.40
2019-04-21T13:42:11.007Z,20.90
2019-04-21T13:44:37.093Z,21.20
2019-04-21T13:47:10.541Z,21.50
2019-04-21T13:49:45.445Z,20.60
2019-04-21T13:52:18.652Z,21.00
2019-04-21T13:54:51.614Z,20.60
2019-04-21T13:57:26.209Z,20.70
2019-04-21T13:59:59.613Z,20.00
2019-04-21T14:02:32.690Z,20.30
2019-04-21T14:05:11.490Z,20.60
2019-04-21T14:07:44.022Z,20.00
2019-04-21T14:10:17.922Z,20.30
2019-04-21T14:12:51.338Z,20.90
2019-04-21T14:15:24.268Z,20.50
2019-04-21T14:17:58.367Z,20.20
2019-04-21T14:20:31.379Z,19.20
2019-04-21T14:23:15.839Z,19.10
2019-04-21T14:25:39.579Z,20.10
2019-04-21T14:28:12.754Z,20.20
2019-04-21T14:30:46.150Z,20.60
2019-04-21T14:33:20.483Z,19.80
2019-04-21T14:35:54.768Z,19.50
2019-04-21T14:38:28.913Z,20.10
2019-04-21T14:41:02.152Z,20.50
2019-04-21T14:43:36.196Z,20.10
2019-04-21T14:46:25.477Z,20.50
2019-04-21T14:49:11.129Z,19.70
2019-04-21T14:51:50.937Z,19.70
2019-04-21T14:54:58.649Z,19.40
2019-04-21T14:57:31.624Z,20.00
2019-04-21T15:00:07.109Z,20.50
2019-04-21T15:02:41.271Z,21.20
2019-04-21T15:05:15.594Z,20.70
2019-04-21T15:07:49.018Z,20.60
2019-04-21T15:10:25.573Z,20.00
2019-04-21T15:12:56.570Z,19.90
2019-04-21T15:15:29.966Z,20.10
2019-04-21T15:18:03.929Z,20.30
2019-04-21T15:20:38.377Z,19.40
2019-04-21T15:23:12.454Z,19.70
2019-04-21T15:25:46.053Z,20.30
2019-04-21T15:28:20.094Z,20.30
2019-04-21T15:30:54.403Z,20.90
2019-04-21T15:33:28.600Z,20.70
2019-04-21T15:36:02.927Z,21.10
2019-04-21T15:38:35.969Z,20.60
2019-04-21T15:41:10.844Z,19.90
2019-04-21T15:43:44.720Z,20.00
2019-04-21T15:46:18.479Z,20.60
2019-04-21T15:48:51.315Z,20.00
2019-04-21T15:51:24.130Z,19.90
2019-04-21T15:53:57.603Z,20.30
2019-04-21T15:56:47.210Z,20.50
2019-04-21T15:59:46.575Z,20.00
2019-04-21T16:02:38.045Z,20.10
2019-04-21T16:05:13.015Z,19.90
2019-04-21T16:07:47.918Z,20.50
2019-04-21T16:10:31.006Z,21.00
2019-04-21T16:12:56.056Z,21.20
2019-04-21T16:15:30.291Z,21.00
2019-04-21T16:18:03.701Z,21.20
2019-04-21T16:20:37.655Z,21.30
2019-04-21T16:23:10.791Z,21.30
2019-04-21T16:25:44.406Z,22.10
2019-04-21T16:28:17.577Z,23.40
2019-04-21T16:30:52.123Z,23.80
2019-04-21T16:33:25.231Z,24.30
2019-04-21T16:35:58.106Z,25.00
2019-04-21T16:38:31.474Z,25.40
2019-04-21T16:41:08.596Z,25.60
2019-04-21T16:43:40.912Z,25.60
2019-04-21T16:46:15.710Z,25.50
2019-04-21T16:48:49.681Z,25.60
2019-04-21T16:51:23.961Z,26.00
2019-04-21T16:54:01.922Z,26.30
2019-04-21T16:56:54.001Z,26.30
2019-04-21T16:59:33.002Z,26.60
2019-04-21T17:02:07.047Z,26.80
2019-04-21T17:04:40.288Z,27.00
2019-04-21T17:07:14.902Z,27.00
2019-04-21T17:09:48.611Z,26.70
2019-04-21T17:12:22.743Z,27.70
2019-04-21T17:15:10.861Z,27.30
2019-04-21T17:17:50.027Z,27.30
2019-04-21T17:20:24.411Z,27.10
2019-04-21T17:22:41.761Z,27.40
2019-04-21T17:25:16.132Z,27.80
2019-04-21T17:27:51.369Z,28.50
2019-04-21T17:30:24.628Z,27.90
2019-04-21T17:32:57.486Z,27.90
2019-04-21T17:35:31.174Z,28.00
2019-04-21T17:38:04.144Z,27.90
2019-04-21T17:40:37.889Z,28.80
2019-04-21T17:43:14.768Z,28.60
2019-04-21T17:45:46.566Z,28.20
2019-04-21T17:48:21.453Z,28.10
2019-04-21T17:51:21.325Z,27.60
2019-04-21T17:54:13.634Z,27.50
2019-04-21T17:57:04.571Z,27.60
2019-04-21T17:59:51.245Z,28.30
2019-04-21T18:02:07.945Z,28.60
2019-04-21T18:04:56.702Z,28.90
2019-04-21T18:07:29.077Z,29.40
2019-04-21T18:10:04.358Z,29.70
2019-04-21T18:12:33.739Z,30.00
2019-04-21T18:15:02.170Z,31.50
2019-04-21T18:17:27.202Z,31.20
2019-04-21T18:20:01.663Z,32.30
2019-04-21T18:22:58.568Z,34.80
2019-04-21T18:25:43.937Z,35.80
2019-04-21T18:28:06.391Z,36.40
2019-04-21T18:30:54.179Z,37.10
2019-04-21T18:33:31.808Z,37.60
2019-04-21T18:36:35.493Z,38.00
2019-04-21T18:39:33.931Z,38.60
2019-04-21T18:42:17.131Z,38.90
2019-04-21T18:45:34.458Z,39.30
2019-04-21T18:47:59.630Z,39.80
2019-04-21T18:50:46.226Z,40.10
2019-04-21T18:53:32.690Z,40.50
2019-04-21T18:55:58.289Z,41.00
2019-04-21T18:58:26.861Z,41.00
2019-04-21T19:01:07.548Z,41.30
2019-04-21T19:03:41.067Z,41.90
2019-04-21T19:06:16.449Z,42.00
2019-04-21T19:09:03.847Z,42.60
2019-04-21T19:11:33.213Z,42.70
2019-04-21T19:14:28.582Z,43.00
2019-04-21T19:17:04.457Z,43.20
2019-04-21T19:22:04.794Z,43.70
2019-04-21T19:24:33.252Z,44.00
2019-04-21T19:29:52.216Z,44.50
2019-04-21T19:34:40.673Z,44.80
2019-04-21T19:37:17.104Z,45.30
2019-04-21T19:39:57.931Z,45.30
2019-04-21T19:42:32.354Z,45.60
2019-04-21T19:45:15.101Z,46.00
2019-04-21T19:47:48.629Z,46.30
2019-04-21T19:50:28.662Z,46.80
2019-04-21T19:52:53.453Z,47.10
2019-04-21T19:55:18.127Z,47.40
2019-04-21T19:57:52.706Z,47.70
2019-04-21T20:00:26.656Z,48.00
2019-04-21T20:03:00.810Z,48.10
2019-04-21T20:05:43.021Z,48.40
2019-04-21T20:08:23.698Z,48.40
2019-04-21T20:11:01.166Z,48.80
2019-04-21T20:13:48.870Z,49.10
2019-04-21T20:16:12.877Z,49.60
2019-04-21T20:18:37.881Z,50.10
2019-04-21T20:21:03.909Z,50.50
2019-04-21T20:23:39.512Z,50.70
2019-04-21T20:26:13.672Z,51.30
2019-04-21T20:28:56.612Z,51.70
2019-04-21T20:31:44.567Z,52.40
2019-04-21T20:34:25.043Z,53.30
2019-04-21T20:36:56.707Z,53.80
2019-04-21T20:39:13.144Z,54.20
2019-04-21T20:41:53.991Z,54.80
2019-04-21T20:44:37.370Z,55.60
2019-04-21T20:47:05.085Z,56.30
2019-04-21T20:49:35.241Z,57.30
2019-04-21T20:52:23.954Z,58.00
2019-04-21T20:54:49.380Z,58.70
2019-04-21T20:57:25.332Z,58.70
2019-04-21T21:00:07.402Z,58.90
2019-04-21T21:02:42.802Z,58.70
2019-04-21T21:05:04.949Z,58.50
2019-04-21T21:07:50.222Z,58.70
2019-04-21T21:10:20.889Z,58.80
2019-04-21T21:13:10.497Z,58.80
2019-04-21T21:15:29.233Z,58.30
2019-04-21T21:18:15.943Z,57.70
2019-04-21T21:20:43.661Z,57.20
2019-04-21T21:23:11.816Z,55.20
2019-04-21T21:25:54.480Z,54.30
2019-04-21T21:28:24.476Z,53.60
2019-04-21T21:31:02.513Z,53.00
2019-04-21T21:33:39.951Z,52.30
2019-04-21T21:36:13.422Z,52.30
2019-04-21T21:38:49.721Z,51.90
2019-04-21T21:41:13.827Z,51.60
2019-04-21T21:43:39.450Z,51.10
2019-04-21T21:46:28.668Z,50.80
2019-04-21T21:49:00.859Z,50.40
2019-04-21T21:51:38.443Z,49.80
2019-04-21T21:53:57.118Z,49.30
2019-04-21T21:56:30.202Z,48.80
2019-04-21T21:59:10.590Z,49.10
2019-04-21T22:01:44.087Z,48.90
2019-04-21T22:04:18.945Z,48.60
2019-04-21T22:06:57.565Z,48.20
2019-04-21T22:09:24.087Z,48.00
2019-04-21T22:12:01.355Z,47.70
2019-04-21T22:14:39.091Z,47.60
2019-04-21T22:17:21.774Z,47.90
2019-04-21T22:20:02.973Z,48.00
2019-04-21T22:22:34.149Z,48.30
2019-04-21T22:25:03.128Z,48.50
2019-04-21T22:27:27.250Z,48.80
2019-04-21T22:30:03.857Z,48.80
2019-04-21T22:32:57.971Z,48.80
2019-04-21T22:35:34.779Z,48.90
2019-04-21T22:38:16.145Z,49.20
2019-04-21T22:40:50.463Z,49.40
2019-04-21T22:43:19.717Z,49.50
2019-04-21T22:45:45.302Z,49.80
2019-04-21T22:48:21.534Z,50.00
2019-04-21T22:50:53.102Z,50.90
2019-04-21T22:53:29.321Z,50.50
2019-04-21T22:56:10.204Z,50.50
2019-04-21T22:58:39.311Z,50.80
2019-04-21T23:01:11.039Z,51.10
2019-04-21T23:03:49.214Z,51.90
2019-04-21T23:06:23.325Z,51.50
2019-04-21T23:08:54.999Z,51.70
2019-04-21T23:11:37.471Z,51.80
2019-04-21T23:14:06.563Z,51.80
2019-04-21T23:16:40.277Z,52.20
2019-04-21T23:19:28.022Z,52.40
2019-04-21T23:22:03.529Z,52.50
2019-04-21T23:24:46.895Z,52.70
2019-04-21T23:27:11.793Z,52.80
2019-04-21T23:30:00.530Z,53.00
2019-04-21T23:32:19.935Z,53.20
2019-04-21T23:34:43.810Z,53.40
2019-04-21T23:37:21.504Z,53.40
2019-04-21T23:39:59.644Z,54.00
2019-04-21T23:42:31.880Z,54.20
2019-04-21T23:45:03.164Z,54.60
2019-04-21T23:47:46.779Z,54.80
2019-04-21T23:50:29.485Z,54.90
2019-04-21T23:52:47.783Z,55.00
2019-04-21T23:55:21.086Z,55.80
2019-04-21T23:58:05.012Z,55.80
